ěÝzenÝ letovÚho provozu ╚eskÚ republiky
OPMET data - Ceska Republika Aktualizace: 24.09.2020 16:33:25  UTC
SIGMET / AIRMET - NIL
Warning / Vystraha - NIL
AIREP - NIL
REG QNH
REGIONAL QNH FORECAST ISSUED 2020-09-24 14:43 AREA VALID FM/TL QNH/HPA/ : LKAA 241500/241800 1004 =
 
METAR / SPECI
METAR LKBC 241630Z AUTO 13004KT 9999 SCT150 19/13 Q1008=
METAR LKCV 241630Z 18004KT CAVOK 21/14 Q1007 NOSIG RMK BLU BLU=
METAR LKKB 241630Z 27005KT CAVOK 21/11 Q1007 NOSIG RMK BLU BLU=
METAR LKKU NIL
METAR LKKV 241630Z VRB02KT CAVOK 16/10 Q1008 RMK REG QNH 1004=
METAR LKLN 241630Z AUTO VRB02KT CAVOK 18/13 Q1007=
METAR LKMT 241630Z 17005KT CAVOK 20/15 Q1009 NOSIG RMK REG QNH 1004=
METAR LKNA 241630Z 19005KT CAVOK 20/12 Q1009 NOSIG RMK BLU BLU=
METAR LKPD 241630Z 00000KT CAVOK 21/14 Q1007 NOSIG RMK BLU BLU=
METAR LKPJ 241630Z AUTO 14004KT 9999 FEW130 20/14 Q1008=
METAR LKPR 241630Z 24005KT 9999 FEW040 19/11 Q1008 NOSIG RMK REG QNH 1004=
METAR LKTB 241630Z 14007KT CAVOK 21/13 Q1008 NOSIG RMK REG QNH 1004=
METAR LKVO NIL
TAF
TAF LKBC NIL
TAF LKCV 241100Z 2412/2512 24007KT CAVOK      PROB30 TEMPO 2412/2416 7000 SHRA SCT035TCU      BECMG 2420/2422 14010KT      BECMG 2500/2503 BKN030      TEMPO 2502/2512 15016G28KT 5000 RA BKN015      PROB30 TEMPO 2508/2512 4000 TSRA BKN014CB=
TAF LKKB 241100Z 2412/2512 19008KT CAVOK      PROB30 TEMPO 2412/2416 21016KT SHRA SCT035TCU      BECMG 2502/2504 BKN030      TEMPO 2504/2512 7000 RA BKN017 OVC050=
TAF LKKU NIL
TAF LKKV 241100Z 2412/2518 24010KT 9999 SCT025      BECMG 2422/2500 15008KT 8000 -RA BKN020      PROB40 TEMPO 2500/2509 3000 RA BR BKN005      BECMG 2512/2514 29011G21KT=
TAF LKLN NIL
TAF LKMT 241100Z 2412/2518 21010KT 9999 SCT035      TEMPO 2412/2416 9000 -SHRA FEW030TCU      BECMG 2507/2509 20012G24KT 9000 -RA BKN030      PROB40 TEMPO 2510/2518 6000 RA BKN020=
TAF LKNA 241100Z 2412/2512 19008KT CAVOK      TEMPO 2412/2417 9999 SCT030      PROB30 TEMPO 2412/2417 SHRA BKN030TCU      BECMG 2418/2420 16010KT      BECMG 2500/2503 15012KT BKN014      TEMPO 2504/2512 4000 RA BKN006=
TAF LKPD 241100Z 2412/2512 25010KT CAVOK      PROB40 TEMPO 2412/2417 27016KT 7000 SHRA SCT035TCU      BECMG 2417/2419 14006KT      TEMPO 2500/2512 14016G26KT      BECMG 2504/2506 8000 RA BKN020 OVC035      TEMPO 2507/2512 4000 RA BKN010 OVC020=
TAF LKPJ NIL
TAF LKPR 241100Z 2412/2518 23012G22KT 9999 SCT035      BECMG 2414/2416 22010KT      BECMG 2418/2420 14006KT      BECMG 2500/2502 9000 -RA BKN025      PROB40 TEMPO 2506/2518 21014KT 5000 RA BR BKN017=
TAF LKTB 241100Z 2412/2518 18008KT 9999 SCT035      TEMPO 2412/2416 9000 -SHRA FEW030TCU      BECMG 2505/2507 15015KT 9000 -RA BKN030      PROB40 TEMPO 2508/2518 6000 RA BKN020=
TAF LKVO NIL